Time;durP1;ratioP1;P1;durP2;ratioP2;P2;SDS_P1;SDS_P2;PMS_P1;PMS_P2;Temp;Humidity;BMP_temperature;BMP_pressure;BME280_temperature;BME280_humidity;BME280_pressure;Samples;Min_cycle;Max_cycle;Signal;HPM_P1;HPM_P2
2022/05/30 00:01:46;;;;;;;0.10;0.10;;;9.50;99.90;226.50;231333.00;;;;5073224;28;20190;-69
2022/05/30 00:04:15;;;;;;;0.10;0.10;;;9.30;99.90;226.50;231333.00;;;;5074165;28;20736;-68
2022/05/30 00:06:43;;;;;;;0.00;0.00;;;9.00;99.90;226.50;231333.00;;;;5069210;28;20210;-69
2022/05/30 00:09:13;;;;;;;0.10;0.10;;;9.00;99.90;226.50;231333.00;;;;5060967;28;20209;-68
2022/05/30 00:11:43;;;;;;;0.10;0.10;;;8.90;99.90;226.50;231333.00;;;;5073853;28;20659;-68
2022/05/30 00:14:11;;;;;;;0.10;0.10;;;8.90;99.90;226.50;231333.00;;;;5065810;28;20193;-68
2022/05/30 00:16:39;;;;;;;0.10;0.10;;;8.90;99.90;226.50;231333.00;;;;5059661;28;20218;-68
2022/05/30 00:19:09;;;;;;;0.10;0.10;;;8.90;99.90;226.50;231333.00;;;;5071111;28;20225;-68
2022/05/30 00:21:38;;;;;;;0.10;0.10;;;9.00;99.90;226.50;231333.00;;;;5078075;28;20659;-68
2022/05/30 00:24:07;;;;;;;0.10;0.10;;;9.00;99.90;226.50;231333.00;;;;5071731;28;20608;-68
2022/05/30 00:26:36;;;;;;;0.10;0.10;;;8.80;99.90;226.50;231333.00;;;;5078330;28;20210;-69
2022/05/30 00:29:04;;;;;;;0.10;0.10;;;8.50;99.90;226.50;231333.00;;;;5081255;28;20218;-69
2022/05/30 00:31:35;;;;;;;0.10;0.10;;;8.30;99.90;226.50;231333.00;;;;5076771;28;20189;-70
2022/05/30 00:34:04;;;;;;;0.10;0.10;;;8.20;99.90;226.50;231333.00;;;;5060607;28;20202;-69
2022/05/30 00:36:34;;;;;;;0.08;0.08;;;8.20;99.90;226.50;231333.00;;;;5073662;28;20214;-69
2022/05/30 00:39:03;;;;;;;0.10;0.10;;;8.30;99.90;226.50;231333.00;;;;5071115;28;20224;-69
2022/05/30 00:41:31;;;;;;;0.10;0.10;;;8.30;99.90;226.50;231333.00;;;;5072035;28;20198;-69
2022/05/30 00:44:00;;;;;;;0.10;0.10;;;8.10;99.90;226.50;231333.00;;;;5072851;28;20591;-70
2022/05/30 00:46:28;;;;;;;0.10;0.10;;;8.20;99.90;226.50;231333.00;;;;5072022;28;20267;-70
2022/05/30 00:49:03;;;;;;;0.10;0.10;;;8.20;99.90;226.50;231333.00;;;;5064764;28;20271;-70
2022/05/30 00:51:39;;;;;;;0.00;0.00;;;8.20;99.90;226.50;231333.00;;;;5072589;28;20492;-69
2022/05/30 00:54:12;;;;;;;0.10;0.10;;;8.20;99.90;226.50;231333.00;;;;5070867;28;20192;-70
2022/05/30 00:56:47;;;;;;;0.10;0.10;;;8.20;99.90;226.50;231333.00;;;;5070806;28;20232;-69
2022/05/30 00:59:16;;;;;;;0.10;0.10;;;8.20;99.90;226.50;231333.00;;;;5060749;28;20220;-69
2022/05/30 01:01:46;;;;;;;0.10;0.10;;;8.20;99.90;226.50;231333.00;;;;5070223;28;20198;-70
2022/05/30 01:07:09;;;;;;;0.10;0.10;;;8.30;99.90;226.50;231333.00;;;;5069802;28;20779;-70
2022/05/30 01:09:42;;;;;;;0.10;0.10;;;8.30;99.90;226.50;231333.00;;;;5069861;28;20237;-70
2022/05/30 01:12:14;;;;;;;0.10;0.10;;;8.30;99.90;226.50;231333.00;;;;5067159;28;20199;-70
2022/05/30 01:14:45;;;;;;;0.10;0.10;;;8.30;99.90;226.50;231333.00;;;;5039844;28;20217;-71
2022/05/30 01:17:17;;;;;;;0.00;0.00;;;8.30;99.90;226.50;231333.00;;;;5062049;28;20229;-70
2022/05/30 01:20:01;;;;;;;0.10;0.10;;;8.40;99.90;226.50;231333.00;;;;5055567;28;20237;-70
2022/05/30 01:23:09;;;;;;;0.10;0.10;;;8.20;99.90;226.50;231333.00;;;;5066298;28;20231;-70
2022/05/30 01:26:17;;;;;;;0.10;0.10;;;8.10;99.90;226.50;231333.00;;;;5052920;28;20293;-70
2022/05/30 01:28:58;;;;;;;0.10;0.10;;;8.00;99.90;226.50;231333.00;;;;5044973;28;20296;-71
2022/05/30 01:31:27;;;;;;;0.10;0.10;;;7.90;99.90;226.50;231333.00;;;;5064777;28;20242;-70
2022/05/30 01:33:58;;;;;;;0.10;0.10;;;7.80;99.90;226.50;231333.00;;;;5078047;28;20186;-71
2022/05/30 01:36:33;;;;;;;0.10;0.10;;;7.70;99.90;226.50;231333.00;;;;5053697;28;20229;-71
2022/05/30 01:39:04;;;;;;;0.10;0.10;;;7.80;99.90;226.50;231333.00;;;;5040142;28;20248;-70
2022/05/30 01:41:41;;;;;;;0.10;0.10;;;7.80;99.90;226.50;231333.00;;;;5055545;28;20292;-69
2022/05/30 01:44:11;;;;;;;0.10;0.10;;;7.80;99.90;226.50;231333.00;;;;5056496;28;20225;-68
2022/05/30 01:46:41;;;;;;;0.10;0.10;;;7.70;99.90;226.50;231333.00;;;;5067770;28;20680;-69
2022/05/30 01:49:11;;;;;;;0.10;0.10;;;7.70;99.90;226.50;231333.00;;;;5054281;28;20585;-70
2022/05/30 01:51:41;;;;;;;0.10;0.10;;;7.70;99.90;226.50;231333.00;;;;5071711;28;20740;-68
2022/05/30 01:54:11;;;;;;;0.10;0.10;;;7.80;99.90;226.50;231333.00;;;;5055368;28;20194;-68
2022/05/30 01:57:11;;;;;;;0.10;0.10;;;7.80;99.90;226.50;231333.00;;;;5069257;28;20222;-68
2022/05/30 01:59:54;;;;;;;0.10;0.10;;;7.90;99.90;226.50;231333.00;;;;5054468;28;20222;-68
2022/05/30 02:02:43;;;;;;;0.10;0.10;;;7.90;99.90;226.50;231333.00;;;;5073328;28;20233;-68
2022/05/30 02:05:13;;;;;;;0.10;0.10;;;7.90;99.90;226.50;231333.00;;;;5071534;28;20202;-68
2022/05/30 02:07:42;;;;;;;0.10;0.10;;;7.80;99.90;226.50;231333.00;;;;5060897;28;20205;-69
2022/05/30 02:10:15;;;;;;;0.10;0.10;;;7.90;99.90;226.50;231333.00;;;;5068749;28;20237;-68
2022/05/30 02:12:43;;;;;;;0.03;0.03;;;8.00;99.90;226.50;231333.00;;;;5061039;28;20548;-69
2022/05/30 02:15:21;;;;;;;0.10;0.10;;;7.90;99.90;226.50;231333.00;;;;5065922;28;20233;-68
2022/05/30 02:17:53;;;;;;;0.00;0.00;;;7.70;99.90;226.50;231333.00;;;;5065014;28;20225;-68
2022/05/30 02:20:22;;;;;;;0.00;0.00;;;7.50;99.90;226.50;231333.00;;;;5096539;22;20404;-69
2022/05/30 02:22:51;;;;;;;0.10;0.10;;;7.50;99.90;226.50;231333.00;;;;5059577;28;20202;-72
2022/05/30 02:25:20;;;;;;;0.10;0.10;;;7.50;99.90;226.50;231333.00;;;;5074049;28;20193;-71
2022/05/30 02:27:50;;;;;;;0.10;0.10;;;7.50;99.90;226.50;231333.00;;;;5068320;28;20204;-71
2022/05/30 02:30:21;;;;;;;0.10;0.10;;;7.50;99.90;226.50;231333.00;;;;5041385;28;20345;-69
2022/05/30 02:36:38;;;;;;;0.00;0.00;;;7.40;99.90;226.50;231333.00;;;;5062299;28;20277;-69
2022/05/30 02:38:25;;;;;;;0.10;0.10;;;7.40;99.90;226.50;231333.00;;;;5028649;28;20225;-69
2022/05/30 02:41:14;;;;;;;0.10;0.10;;;7.50;99.90;226.50;231333.00;;;;5053537;28;20234;-69
2022/05/30 02:43:51;;;;;;;0.00;0.00;;;7.60;99.90;226.50;231333.00;;;;5052671;28;20608;-69
2022/05/30 02:46:21;;;;;;;0.10;0.10;;;7.50;99.90;226.50;231333.00;;;;5052752;28;20216;-69
2022/05/30 02:48:52;;;;;;;0.10;0.10;;;7.40;99.90;226.50;231333.00;;;;5051789;28;20242;-69
2022/05/30 02:51:21;;;;;;;0.10;0.10;;;7.20;99.90;226.50;231333.00;;;;5071673;28;20194;-69
2022/05/30 02:53:49;;;;;;;0.00;0.00;;;7.10;99.90;226.50;231333.00;;;;5066443;28;20669;-69
2022/05/30 02:56:37;;;;;;;0.10;0.10;;;7.10;99.90;226.50;231333.00;;;;5071823;28;20208;-69
2022/05/30 02:59:06;;;;;;;0.10;0.10;;;6.90;99.90;226.50;231333.00;;;;5064402;28;20206;-69
2022/05/30 03:01:42;;;;;;;0.10;0.10;;;6.80;99.90;226.50;231333.00;;;;5056429;28;20235;-69
2022/05/30 03:04:11;;;;;;;0.10;0.10;;;6.90;99.90;226.50;231333.00;;;;5047450;28;20629;-69
2022/05/30 03:06:40;;;;;;;0.10;0.10;;;6.90;99.90;226.50;231333.00;;;;5058493;28;20198;-69
2022/05/30 03:09:11;;;;;;;0.10;0.10;;;6.90;99.90;226.50;231333.00;;;;5047028;28;20636;-70
2022/05/30 03:12:02;;;;;;;0.10;0.10;;;6.80;99.90;226.50;231333.00;;;;5052066;28;20190;-69
2022/05/30 03:14:31;;;;;;;0.00;0.00;;;6.80;99.90;226.50;231333.00;;;;5059195;28;20190;-70
2022/05/30 03:17:01;;;;;;;0.10;0.10;;;6.70;99.90;226.50;231333.00;;;;5061118;28;20345;-70
2022/05/30 03:19:29;;;;;;;0.00;0.00;;;6.80;99.90;226.50;231333.00;;;;5054856;28;20309;-70
2022/05/30 03:21:59;;;;;;;0.00;0.00;;;6.90;99.90;226.50;231333.00;;;;5057277;28;20232;-70
2022/05/30 03:24:31;;;;;;;0.10;0.10;;;6.90;99.90;226.50;231333.00;;;;5063579;28;20205;-69
2022/05/30 03:27:00;;;;;;;0.00;0.00;;;7.00;99.90;226.50;231333.00;;;;5055855;28;20654;-69
2022/05/30 03:29:31;;;;;;;0.10;0.10;;;7.00;99.90;226.50;231333.00;;;;5052983;28;20593;-69
2022/05/30 03:32:03;;;;;;;0.00;0.00;;;6.90;99.90;226.50;231333.00;;;;5051818;28;20205;-69
2022/05/30 03:34:31;;;;;;;0.10;0.10;;;6.90;99.90;226.50;231333.00;;;;5072874;28;20465;-71
2022/05/30 03:37:00;;;;;;;0.10;0.10;;;6.70;99.90;226.50;231333.00;;;;5071844;28;20221;-70
2022/05/30 03:39:44;;;;;;;0.10;0.10;;;6.70;99.90;226.50;231333.00;;;;5065935;28;20295;-70
2022/05/30 03:42:31;;;;;;;0.00;0.00;;;6.70;99.90;226.50;231333.00;;;;5069894;28;20315;-70
2022/05/30 03:45:03;;;;;;;0.10;0.10;;;6.70;99.90;226.50;231333.00;;;;5058849;28;20218;-70
2022/05/30 03:47:39;;;;;;;0.10;0.10;;;6.70;99.90;226.50;231333.00;;;;5046735;28;20193;-70
2022/05/30 03:50:11;;;;;;;0.08;0.08;;;6.70;99.90;226.50;231333.00;;;;5052546;28;20230;-70
2022/05/30 03:52:40;;;;;;;0.10;0.10;;;6.70;99.90;226.50;231333.00;;;;5041068;28;20604;-70
2022/05/30 03:55:15;;;;;;;0.08;0.08;;;6.40;99.90;226.50;231333.00;;;;5053155;28;20193;-70
2022/05/30 03:57:44;;;;;;;0.10;0.10;;;6.30;99.90;226.50;231333.00;;;;5072199;28;20212;-70
2022/05/30 04:00:17;;;;;;;0.00;0.00;;;6.30;99.90;226.50;231333.00;;;;5054806;28;20214;-70
2022/05/30 04:02:48;;;;;;;0.05;0.05;;;6.30;99.90;226.50;231333.00;;;;5067870;28;20190;-70
2022/05/30 04:05:20;;;;;;;0.10;0.10;;;6.40;99.90;226.50;231333.00;;;;5064546;28;20202;-70
2022/05/30 04:07:49;;;;;;;0.10;0.10;;;6.50;99.90;226.50;231333.00;;;;5070128;28;20193;-72
2022/05/30 04:10:38;;;;;;;0.10;0.10;;;6.50;99.90;226.50;231333.00;;;;5041642;28;20226;-71
2022/05/30 04:13:26;;;;;;;0.00;0.00;;;6.50;99.90;226.50;231333.00;;;;5073375;28;20252;-71
2022/05/30 04:16:15;;;;;;;0.10;0.10;;;6.60;99.90;226.50;231333.00;;;;5072624;28;20220;-70
2022/05/30 04:18:46;;;;;;;0.00;0.00;;;6.60;99.90;226.50;231333.00;;;;5048530;28;20241;-70
2022/05/30 04:21:15;;;;;;;0.10;0.10;;;6.60;99.90;226.50;231333.00;;;;5055214;28;20229;-70
2022/05/30 04:23:44;;;;;;;0.00;0.00;;;6.60;99.90;226.50;231333.00;;;;5072932;28;20248;-70
2022/05/30 04:26:19;;;;;;;0.00;0.00;;;6.60;99.90;226.50;231333.00;;;;5054586;28;20300;-72
2022/05/30 04:28:52;;;;;;;0.10;0.10;;;6.70;99.90;226.50;231333.00;;;;5056180;28;20194;-72
2022/05/30 04:32:01;;;;;;;0.10;0.10;;;6.80;99.90;226.50;231333.00;;;;4977236;28;20209;-71
2022/05/30 04:34:32;;;;;;;0.10;0.10;;;6.80;99.90;226.50;231333.00;;;;4978312;28;20618;-71
2022/05/30 04:37:01;;;;;;;0.10;0.10;;;6.80;99.90;226.50;231333.00;;;;5028134;28;20190;-70
2022/05/30 04:39:30;;;;;;;0.10;0.10;;;6.90;99.90;226.50;231333.00;;;;5052786;28;20222;-69
2022/05/30 04:42:17;;;;;;;0.10;0.10;;;6.90;99.90;226.50;231333.00;;;;5071280;28;20236;-69
2022/05/30 04:45:20;;;;;;;0.10;0.10;;;6.90;99.90;226.50;231333.00;;;;5072505;28;20205;-70
2022/05/30 04:48:21;;;;;;;0.10;0.10;;;6.80;99.90;226.50;231333.00;;;;5058329;28;20201;-69
2022/05/30 04:50:51;;;;;;;0.10;0.10;;;6.60;99.90;226.50;231333.00;;;;5068591;28;20212;-69
2022/05/30 04:53:19;;;;;;;0.10;0.10;;;6.50;99.90;226.50;231333.00;;;;5065011;28;20217;-69
2022/05/30 04:56:08;;;;;;;0.10;0.10;;;6.50;99.90;226.50;231333.00;;;;5045702;28;20732;-69
2022/05/30 04:58:47;;;;;;;0.10;0.10;;;6.50;99.90;226.50;231333.00;;;;5046864;28;20309;-69
2022/05/30 05:01:19;;;;;;;0.00;0.00;;;6.60;99.90;226.50;231333.00;;;;5054829;28;20241;-70
2022/05/30 05:03:49;;;;;;;0.00;0.00;;;6.70;99.90;226.50;231333.00;;;;5044579;28;20693;-70
2022/05/30 05:06:21;;;;;;;0.10;0.10;;;6.80;99.90;226.50;231333.00;;;;5054307;28;20202;-73
2022/05/30 05:08:58;;;;;;;0.10;0.10;;;6.90;99.90;226.50;231333.00;;;;5050238;28;20271;-70
2022/05/30 05:11:48;;;;;;;0.10;0.10;;;7.10;99.90;226.50;231333.00;;;;5053922;28;20931;-70
2022/05/30 05:14:35;;;;;;;0.10;0.10;;;7.20;99.90;226.50;231333.00;;;;5063502;28;20251;-69
2022/05/30 05:17:22;;;;;;;0.10;0.10;;;7.30;99.90;226.50;231333.00;;;;5056337;28;20212;-70
2022/05/30 05:19:51;;;;;;;0.10;0.10;;;7.50;99.90;226.50;231333.00;;;;5058664;28;20218;-72
2022/05/30 05:22:21;;;;;;;0.10;0.10;;;7.60;99.90;226.50;231333.00;;;;5049939;28;20236;-70
2022/05/30 05:24:49;;;;;;;0.10;0.10;;;7.60;99.90;226.50;231333.00;;;;5035138;28;20305;-70
2022/05/30 05:27:36;;;;;;;0.03;0.03;;;7.70;99.90;226.50;231333.00;;;;5041510;28;20204;-69
2022/05/30 05:30:07;;;;;;;0.10;0.10;;;7.70;99.90;226.50;231333.00;;;;5043657;28;20722;-72
2022/05/30 05:32:36;;;;;;;0.10;0.10;;;7.80;99.90;226.50;231333.00;;;;5043588;28;20221;-70
2022/05/30 05:35:09;;;;;;;0.10;0.10;;;7.90;99.90;226.50;231333.00;;;;5044376;28;20207;-70
2022/05/30 05:37:39;;;;;;;0.10;0.10;;;7.90;99.90;226.50;231333.00;;;;5053653;28;20189;-73
2022/05/30 05:40:44;;;;;;;0.10;0.10;;;8.20;99.90;226.50;231333.00;;;;5059987;28;20225;-70
2022/05/30 05:43:14;;;;;;;0.10;0.10;;;8.30;99.90;226.50;231333.00;;;;5057315;28;20297;-70
2022/05/30 05:45:46;;;;;;;0.10;0.10;;;8.30;99.90;226.50;231333.00;;;;5058438;28;20221;-73
2022/05/30 05:48:16;;;;;;;0.10;0.10;;;8.40;99.90;226.50;231333.00;;;;5059667;28;20202;-70
2022/05/30 05:50:46;;;;;;;0.03;0.03;;;8.50;99.90;226.50;231333.00;;;;5055263;28;20245;-71
2022/05/30 05:53:17;;;;;;;0.10;0.10;;;8.50;99.90;226.50;231333.00;;;;5054492;28;20200;-71
2022/05/30 05:55:48;;;;;;;0.00;0.00;;;8.60;99.90;226.50;231333.00;;;;5051122;28;20198;-70
2022/05/30 05:58:17;;;;;;;0.10;0.10;;;8.60;99.90;226.50;231333.00;;;;5047490;28;20299;-71
2022/05/30 06:00:45;;;;;;;0.10;0.10;;;8.70;99.90;226.50;231333.00;;;;5036958;28;20214;-71
2022/05/30 06:03:14;;;;;;;0.10;0.10;;;8.90;99.90;226.50;231333.00;;;;5051092;28;20238;-71
2022/05/30 06:06:07;;;;;;;0.00;0.00;;;9.00;99.90;226.50;231333.00;;;;5070490;28;20200;-71
2022/05/30 06:08:59;;;;;;;0.10;0.10;;;9.00;99.90;226.50;231333.00;;;;5048643;28;20275;-71
2022/05/30 06:11:40;;;;;;;0.10;0.10;;;9.10;99.90;226.50;231333.00;;;;5054962;28;20190;-71
2022/05/30 06:14:09;;;;;;;0.00;0.00;;;9.30;99.90;226.50;231333.00;;;;5060818;28;20197;-71
2022/05/30 06:16:41;;;;;;;0.10;0.10;;;9.40;99.90;226.50;231333.00;;;;5071198;28;20193;-71
2022/05/30 06:19:15;;;;;;;0.10;0.10;;;9.50;99.90;226.50;231333.00;;;;5059933;28;20745;-71
2022/05/30 06:21:44;;;;;;;0.10;0.10;;;9.60;99.90;226.50;231333.00;;;;5073967;28;20228;-70
2022/05/30 06:24:15;;;;;;;0.10;0.10;;;9.70;99.90;226.50;231333.00;;;;5057631;28;20438;-70
2022/05/30 06:27:06;;;;;;;0.10;0.10;;;9.80;99.90;226.50;231333.00;;;;5062885;28;20208;-70
2022/05/30 06:30:04;;;;;;;0.10;0.10;;;9.80;99.90;226.50;231333.00;;;;5060385;28;20232;-70
2022/05/30 06:32:33;;;;;;;0.10;0.10;;;9.90;99.90;226.50;231333.00;;;;5057361;28;20281;-70
2022/05/30 06:35:10;;;;;;;0.10;0.10;;;10.10;99.90;226.50;231333.00;;;;5072845;28;20205;-70
2022/05/30 06:37:41;;;;;;;0.10;0.10;;;10.10;99.90;226.50;231333.00;;;;5053677;28;20280;-71
2022/05/30 06:40:14;;;;;;;0.00;0.00;;;10.20;99.90;226.50;231333.00;;;;5054690;28;20222;-70
2022/05/30 06:42:46;;;;;;;0.10;0.10;;;10.30;99.90;226.50;231333.00;;;;5040571;28;20205;-70
2022/05/30 06:45:30;;;;;;;0.10;0.10;;;10.30;99.90;226.50;231333.00;;;;5061554;28;20209;-69
2022/05/30 06:48:17;;;;;;;0.10;0.10;;;10.50;99.90;226.50;231333.00;;;;5082020;28;20240;-73
2022/05/30 06:50:54;;;;;;;0.10;0.10;;;10.50;99.90;226.50;231333.00;;;;5061692;28;20221;-70
2022/05/30 06:53:23;;;;;;;0.10;0.10;;;10.40;99.90;226.50;231333.00;;;;5059116;28;20220;-70
2022/05/30 06:55:55;;;;;;;0.10;0.10;;;10.50;99.90;226.50;231333.00;;;;5055060;28;20194;-70
2022/05/30 06:58:25;;;;;;;0.10;0.10;;;10.60;99.90;226.50;231333.00;;;;5064835;28;20198;-71
2022/05/30 07:00:59;;;;;;;0.00;0.00;;;10.60;99.90;226.50;231333.00;;;;5066656;28;20207;-71
2022/05/30 07:03:41;;;;;;;0.08;0.08;;;10.70;99.90;226.50;231333.00;;;;5060947;28;20205;-71
2022/05/30 07:06:33;;;;;;;0.10;0.10;;;10.70;99.90;226.50;231333.00;;;;5059959;28;20201;-71
2022/05/30 07:09:27;;;;;;;0.10;0.10;;;10.80;99.90;226.50;231333.00;;;;5033477;28;20218;-71
2022/05/30 07:12:12;;;;;;;0.10;0.10;;;11.10;99.90;226.50;231333.00;;;;5041439;28;20206;-71
2022/05/30 07:14:42;;;;;;;0.10;0.10;;;11.30;99.90;226.50;231333.00;;;;5069370;28;20297;-71
2022/05/30 07:17:12;;;;;;;0.10;0.10;;;11.50;99.90;226.50;231333.00;;;;5055388;28;20197;-71
2022/05/30 07:19:41;;;;;;;0.10;0.10;;;11.50;99.90;226.50;231333.00;;;;5049256;28;20265;-71
2022/05/30 07:22:10;;;;;;;0.10;0.10;;;11.50;99.90;226.50;231333.00;;;;5042669;28;20227;-71
2022/05/30 07:24:57;;;;;;;0.10;0.10;;;11.60;99.90;226.50;231333.00;;;;5071194;28;20201;-71
2022/05/30 07:28:02;;;;;;;0.10;0.10;;;11.60;99.90;226.50;231333.00;;;;5059538;28;20198;-71
2022/05/30 07:30:54;;;;;;;0.00;0.00;;;11.40;99.90;226.50;231333.00;;;;5055530;28;20225;-70
2022/05/30 07:33:43;;;;;;;0.10;0.10;;;11.40;99.90;226.50;231333.00;;;;5059122;28;20213;-70
2022/05/30 07:36:32;;;;;;;0.00;0.00;;;11.50;99.90;226.50;231333.00;;;;5067792;28;20287;-71
2022/05/30 07:39:18;;;;;;;0.10;0.10;;;11.50;99.90;226.50;231333.00;;;;5048660;28;20225;-70
2022/05/30 07:42:10;;;;;;;0.10;0.10;;;11.50;99.90;226.50;231333.00;;;;5059422;28;20213;-70
2022/05/30 07:44:57;;;;;;;0.10;0.10;;;11.70;99.90;226.50;231333.00;;;;5048079;28;20272;-70
2022/05/30 07:47:42;;;;;;;0.10;0.10;;;11.80;99.90;226.50;231333.00;;;;5072382;28;20664;-70
2022/05/30 07:50:24;;;;;;;0.00;0.00;;;11.70;99.90;226.50;231333.00;;;;5041930;28;20241;-71
2022/05/30 07:53:05;;;;;;;0.10;0.10;;;11.80;99.90;226.50;231333.00;;;;5049094;28;20275;-70
2022/05/30 07:55:58;;;;;;;0.10;0.10;;;11.90;99.90;226.50;231333.00;;;;5068557;28;20210;-70
2022/05/30 07:58:27;;;;;;;0.10;0.10;;;12.20;99.90;226.50;231333.00;;;;5039280;28;20182;-71
2022/05/30 08:00:58;;;;;;;0.10;0.10;;;12.60;99.90;226.50;231333.00;;;;5053435;28;20229;-71
2022/05/30 08:03:31;;;;;;;0.10;0.10;;;12.90;99.90;226.50;231333.00;;;;5055242;28;20207;-71
2022/05/30 08:06:32;;;;;;;0.10;0.10;;;13.00;99.90;226.50;231333.00;;;;5053388;28;20202;-71
2022/05/30 08:09:19;;;;;;;0.10;0.10;;;13.20;99.90;226.50;231333.00;;;;5063499;28;20243;-71
2022/05/30 08:12:00;;;;;;;0.10;0.10;;;13.30;99.90;226.50;231333.00;;;;5066054;28;20596;-71
2022/05/30 08:14:47;;;;;;;0.10;0.10;;;13.60;99.90;226.50;231333.00;;;;5066519;28;20252;-71
2022/05/30 08:17:16;;;;;;;0.10;0.10;;;13.90;99.90;226.50;231333.00;;;;5055884;28;20213;-71
2022/05/30 08:19:45;;;;;;;0.10;0.10;;;14.20;99.90;226.50;231333.00;;;;5077103;22;20236;-70
2022/05/30 08:22:22;;;;;;;0.00;0.00;;;14.40;99.90;226.50;231333.00;;;;5106905;28;20196;-68
2022/05/30 08:24:52;;;;;;;0.10;0.10;;;14.30;99.90;226.50;231333.00;;;;5111933;28;20201;-69
2022/05/30 08:27:23;;;;;;;0.10;0.10;;;14.30;99.90;226.50;231333.00;;;;5095717;28;20262;-68
2022/05/30 08:30:01;;;;;;;0.00;0.00;;;14.40;99.90;226.50;231333.00;;;;5096706;28;20701;-68
2022/05/30 08:32:40;;;;;;;0.00;0.00;;;14.40;99.90;226.50;231333.00;;;;5090825;28;20213;-69
2022/05/30 08:35:19;;;;;;;0.10;0.10;;;14.40;99.90;226.50;231333.00;;;;5092525;28;20212;-69
2022/05/30 08:37:49;;;;;;;0.00;0.00;;;14.50;99.90;226.50;231333.00;;;;5107455;28;20204;-70
2022/05/30 08:43:13;;;;;;;0.00;0.00;;;15.30;99.90;226.50;231333.00;;;;5074336;28;20571;-69
2022/05/30 08:46:05;;;;;;;0.00;0.00;;;15.50;99.90;226.50;231333.00;;;;5091121;28;20203;-69
2022/05/30 08:48:46;;;;;;;0.10;0.10;;;14.90;99.90;226.50;231333.00;;;;5090339;28;20288;-68
2022/05/30 08:51:46;;;;;;;0.00;0.00;;;14.60;99.90;226.50;231333.00;;;;5091241;28;20587;-68
2022/05/30 08:54:41;;;;;;;0.10;0.10;;;14.70;99.90;226.50;231333.00;;;;5091701;28;20216;-69
2022/05/30 08:57:41;;;;;;;0.10;0.10;;;14.60;99.90;226.50;231333.00;;;;5112653;27;20235;-68
2022/05/30 09:00:21;;;;;;;0.10;0.10;;;14.80;99.90;226.50;231333.00;;;;5089337;28;20345;-68
2022/05/30 09:03:17;;;;;;;0.00;0.00;;;15.00;99.90;226.50;231333.00;;;;5091247;28;20553;-68
2022/05/30 09:05:50;;;;;;;0.00;0.00;;;15.10;99.90;226.50;231333.00;;;;5092102;28;20571;-68
2022/05/30 09:08:29;;;;;;;0.10;0.10;;;14.90;99.90;226.50;231333.00;;;;5108653;28;20573;-68
2022/05/30 09:11:29;;;;;;;0.00;0.00;;;14.60;99.90;226.50;231333.00;;;;5091591;28;20221;-69
2022/05/30 09:14:10;;;;;;;0.10;0.10;;;14.90;99.90;226.50;231333.00;;;;5087667;28;20193;-68
2022/05/30 09:16:51;;;;;;;0.10;0.10;;;15.20;99.90;226.50;231333.00;;;;5095969;28;20254;-68
2022/05/30 09:19:25;;;;;;;0.00;0.00;;;15.70;99.90;226.50;231333.00;;;;5106391;28;20204;-68
2022/05/30 09:22:01;;;;;;;0.00;0.00;;;16.20;99.90;226.50;231333.00;;;;5105373;28;20220;-68
2022/05/30 09:24:36;;;;;;;0.08;0.08;;;16.50;99.90;226.50;231333.00;;;;5090255;28;20203;-69
2022/05/30 09:30:15;;;;;;;0.00;0.00;;;16.10;99.90;226.50;231333.00;;;;5174150;23;20253;-67
2022/05/30 09:33:34;;;;;;;0.00;0.00;;;16.20;99.90;226.50;231333.00;;;;4942669;28;20210;-69
2022/05/30 09:36:31;;;;;;;0.00;0.00;;;16.40;99.90;226.50;231333.00;;;;4944723;28;20262;-69
2022/05/30 09:39:29;;;;;;;0.03;0.03;;;16.30;99.90;226.50;231333.00;;;;4959598;28;20222;-69
2022/05/30 09:42:01;;;;;;;0.00;0.00;;;16.40;99.90;226.50;231333.00;;;;4957361;23;20236;-69
2022/05/30 09:44:42;;;;;;;0.10;0.10;;;16.50;99.90;226.50;231333.00;;;;4917580;29;20199;-69
2022/05/30 09:47:59;;;;;;;0.00;0.00;;;16.60;99.90;226.50;231333.00;;;;4933068;29;20201;-69
2022/05/30 09:50:44;;;;;;;0.00;0.00;;;16.30;99.90;226.50;231333.00;;;;4898157;29;20203;-68
2022/05/30 09:53:38;;;;;;;0.00;0.00;;;16.00;99.90;226.50;231333.00;;;;4897203;29;20305;-69
2022/05/30 09:56:09;;;;;;;0.00;0.00;;;15.90;99.90;226.50;231333.00;;;;4897731;29;20255;-69
2022/05/30 09:58:47;;;;;;;0.00;0.00;;;15.90;99.90;226.50;231333.00;;;;4897557;29;20199;-69
2022/05/30 10:01:36;;;;;;;0.00;0.00;;;15.70;99.90;226.50;231333.00;;;;4906620;29;20329;-69
2022/05/30 10:04:19;;;;;;;0.00;0.00;;;16.00;99.90;226.50;231333.00;;;;4891341;29;20693;-69
2022/05/30 10:07:16;;;;;;;0.00;0.00;;;16.30;99.90;226.50;231333.00;;;;4903338;29;20195;-69
2022/05/30 10:10:00;;;;;;;0.10;0.10;;;16.40;99.90;226.50;231333.00;;;;4902556;29;20730;-69
2022/05/30 10:12:44;;;;;;;0.00;0.00;;;16.30;99.90;226.50;231333.00;;;;4901838;29;20228;-69
2022/05/30 10:15:31;;;;;;;0.00;0.00;;;15.90;99.90;226.50;231333.00;;;;4895497;29;20215;-69
2022/05/30 10:18:29;;;;;;;0.00;0.00;;;15.80;99.90;226.50;231333.00;;;;4899494;29;20210;-69
2022/05/30 10:21:31;;;;;;;0.00;0.00;;;16.00;99.90;226.50;231333.00;;;;4881284;29;20254;-69
2022/05/30 10:31:32;;;;;;;0.00;0.00;;;17.10;99.90;226.50;231333.00;;;;4914811;29;20702;-69
2022/05/30 10:34:40;;;;;;;0.00;0.00;;;17.50;99.90;226.50;231333.00;;;;4898128;29;20215;-70
2022/05/30 10:37:44;;;;;;;0.00;0.00;;;17.40;99.90;226.50;231333.00;;;;4897266;29;20306;-70
2022/05/30 10:40:29;;;;;;;0.00;0.00;;;17.70;99.90;226.50;231333.00;;;;4895066;29;20211;-70
2022/05/30 10:43:10;;;;;;;0.00;0.00;;;17.50;99.90;226.50;231333.00;;;;4884732;29;20235;-70
2022/05/30 10:45:49;;;;;;;0.00;0.00;;;17.50;99.90;226.50;231333.00;;;;4904120;29;20338;-70
2022/05/30 10:48:28;;;;;;;0.00;0.00;;;17.50;99.90;226.50;231333.00;;;;4908360;29;20686;-69
2022/05/30 10:51:10;;;;;;;0.00;0.00;;;17.50;99.90;226.50;231333.00;;;;4904709;29;20226;-69
2022/05/30 10:53:50;;;;;;;0.00;0.00;;;17.10;99.90;226.50;231333.00;;;;4920048;29;20191;-69
2022/05/30 10:56:28;;;;;;;0.00;0.00;;;16.80;99.90;226.50;231333.00;;;;4919411;29;20649;-69
2022/05/30 10:59:13;;;;;;;0.00;0.00;;;16.50;99.90;226.50;231333.00;;;;4903318;29;20198;-69
2022/05/30 11:01:48;;;;;;;0.00;0.00;;;16.60;99.90;226.50;231333.00;;;;4924662;29;20223;-69
2022/05/30 11:04:36;;;;;;;0.00;0.00;;;16.70;99.90;226.50;231333.00;;;;4911016;29;20670;-69
2022/05/30 11:07:26;;;;;;;0.00;0.00;;;17.00;99.90;226.50;231333.00;;;;4906023;29;20342;-69
2022/05/30 11:10:03;;;;;;;0.00;0.00;;;17.40;99.90;226.50;231333.00;;;;4900986;29;20188;-69
2022/05/30 11:12:41;;;;;;;0.00;0.00;;;17.60;99.90;226.50;231333.00;;;;4890715;29;20219;-69
2022/05/30 11:15:24;;;;;;;0.00;0.00;;;17.80;99.90;226.50;231333.00;;;;4897840;29;20646;-70
2022/05/30 11:18:32;;;;;;;0.00;0.00;;;18.00;99.90;226.50;231333.00;;;;4911065;29;20228;-70
2022/05/30 11:21:35;;;;;;;0.00;0.00;;;18.00;99.50;226.50;231333.00;;;;4893260;29;20657;-70
2022/05/30 11:24:06;;;;;;;0.00;0.00;;;17.90;99.90;226.50;231333.00;;;;4914612;29;20202;-70
2022/05/30 11:27:11;;;;;;;0.00;0.00;;;17.90;99.60;226.50;231333.00;;;;4893722;29;20277;-69
2022/05/30 11:30:05;;;;;;;0.00;0.00;;;17.90;99.80;226.50;231333.00;;;;4909430;29;20210;-69
2022/05/30 11:33:00;;;;;;;0.00;0.00;;;17.40;99.70;226.50;231333.00;;;;4910621;29;20237;-70
2022/05/30 11:35:35;;;;;;;0.00;0.00;;;16.80;99.90;226.50;231333.00;;;;4908008;29;20195;-69
2022/05/30 11:38:39;;;;;;;0.00;0.00;;;16.70;99.90;226.50;231333.00;;;;4908223;29;20194;-69
2022/05/30 11:41:24;;;;;;;0.00;0.00;;;16.50;99.90;226.50;231333.00;;;;4908312;29;20235;-69
2022/05/30 11:44:28;;;;;;;0.00;0.00;;;16.10;99.90;226.50;231333.00;;;;4908055;29;20690;-69
2022/05/30 11:47:15;;;;;;;0.00;0.00;;;15.80;99.90;226.50;231333.00;;;;4908188;29;20202;-69
2022/05/30 11:49:59;;;;;;;0.10;0.10;;;15.80;99.90;226.50;231333.00;;;;4910355;29;20495;-70
2022/05/30 11:52:49;;;;;;;0.00;0.00;;;15.80;99.90;226.50;231333.00;;;;4907112;29;20230;-69
2022/05/30 11:55:26;;;;;;;0.00;0.00;;;15.80;99.90;226.50;231333.00;;;;4907281;29;20705;-69